< < Back
Terminal Aerodrome Forecast


Current Version              Previous Versions:   1  2  3  4  5  6  7  8  9  

Terminal Aerodrome Forecast

384
FTUS44 KBMX 022320
TAFANB
TAF
KANB 022320Z 0300/0324 30003KT P6SM BKN200=



Latest METAR

975
SAUS70 KWBC 031600 RRE
MTRANB
METAR KANB 031553Z AUTO 20003KT 8SM FEW120 28/22 A3003 RMK AO2 SLP158
T02780222


USA.gov is the U.S. government's official web portal to all federal, state and local government web resources and services.